createdAt,value
2022-12-14T00:01:49.128Z,39.20
2022-12-14T00:04:17.443Z,31.88
2022-12-14T00:06:44.680Z,39.35
2022-12-14T00:09:11.895Z,31.90
2022-12-14T00:11:38.913Z,36.38
2022-12-14T00:14:06.235Z,41.20
2022-12-14T00:16:37.515Z,33.92
2022-12-14T00:19:10.722Z,35.13
2022-12-14T00:21:40.617Z,34.17
2022-12-14T00:24:07.728Z,37.03
2022-12-14T00:26:34.551Z,33.30
2022-12-14T00:29:02.608Z,35.85
2022-12-14T00:31:31.470Z,40.75
2022-12-14T00:33:59.042Z,42.58
2022-12-14T00:36:28.218Z,40.58
2022-12-14T00:38:55.088Z,42.50
2022-12-14T00:41:21.927Z,35.63
2022-12-14T00:43:53.498Z,38.20
2022-12-14T00:46:20.662Z,30.88
2022-12-14T00:48:50.104Z,29.77
2022-12-14T00:51:17.088Z,37.22
2022-12-14T00:53:49.548Z,29.90
2022-12-14T00:56:19.109Z,35.42
2022-12-14T00:58:54.215Z,32.90
2022-12-14T01:01:23.954Z,36.47
2022-12-14T01:04:13.607Z,38.63
2022-12-14T01:06:43.956Z,35.08
2022-12-14T01:09:14.002Z,35.40
2022-12-14T01:11:41.465Z,33.53
2022-12-14T01:14:08.988Z,32.45
2022-12-14T01:16:36.118Z,39.33
2022-12-14T01:19:05.650Z,35.72
2022-12-14T01:21:35.213Z,35.42
2022-12-14T01:24:08.791Z,34.22
2022-12-14T01:26:40.473Z,34.95
2022-12-14T01:29:11.487Z,38.72
2022-12-14T01:31:39.093Z,38.35
2022-12-14T01:34:06.366Z,35.63
2022-12-14T01:36:36.953Z,33.25
2022-12-14T01:39:13.614Z,35.63
2022-12-14T01:41:49.507Z,36.85
2022-12-14T01:44:16.286Z,33.65
2022-12-14T01:46:53.647Z,33.10
2022-12-14T01:49:28.679Z,38.40
2022-12-14T01:51:59.133Z,34.60
2022-12-14T01:54:31.404Z,38.95
2022-12-14T01:57:01.023Z,31.50
2022-12-14T01:59:35.107Z,31.63
2022-12-14T02:02:05.989Z,33.42
2022-12-14T02:04:42.079Z,35.33
2022-12-14T02:07:12.992Z,34.85
2022-12-14T02:09:44.820Z,36.15
2022-12-14T02:12:25.709Z,31.42
2022-12-14T02:14:53.245Z,34.53
2022-12-14T02:17:25.397Z,32.10
2022-12-14T02:19:56.475Z,35.25
2022-12-14T02:22:29.388Z,34.15
2022-12-14T02:25:36.857Z,33.85
2022-12-14T02:28:32.287Z,29.77
2022-12-14T02:31:20.144Z,36.58
2022-12-14T02:34:30.192Z,37.08
2022-12-14T02:37:13.458Z,34.83
2022-12-14T02:40:05.377Z,31.15
2022-12-14T02:43:09.062Z,38.15
2022-12-14T02:45:48.888Z,35.83
2022-12-14T02:48:31.051Z,30.90
2022-12-14T02:51:47.608Z,34.75
2022-12-14T02:54:29.996Z,28.52
2022-12-14T02:57:09.737Z,35.83
2022-12-14T02:59:37.478Z,31.77
2022-12-14T03:02:06.332Z,36.40
2022-12-14T03:04:45.698Z,38.35
2022-12-14T03:07:36.681Z,34.15
2022-12-14T03:10:31.970Z,30.10
2022-12-14T03:13:19.554Z,30.40
2022-12-14T03:16:03.171Z,35.72
2022-12-14T03:18:37.715Z,30.17
2022-12-14T03:21:11.468Z,31.05
2022-12-14T03:23:41.902Z,31.85
2022-12-14T03:26:19.793Z,32.58
2022-12-14T03:28:58.099Z,34.65
2022-12-14T03:31:38.226Z,29.13
2022-12-14T03:34:13.616Z,30.98
2022-12-14T03:36:59.276Z,34.50
2022-12-14T03:39:33.173Z,32.40
2022-12-14T03:42:16.763Z,32.80
2022-12-14T03:45:03.442Z,37.08
2022-12-14T03:48:00.423Z,36.58
2022-12-14T03:50:41.631Z,31.08
2022-12-14T03:53:27.207Z,33.75
2022-12-14T03:56:03.086Z,34.38
2022-12-14T03:58:45.185Z,34.05
2022-12-14T04:01:34.111Z,36.60
2022-12-14T04:04:26.442Z,29.58
2022-12-14T04:07:11.035Z,33.88
2022-12-14T04:09:49.038Z,40.08
2022-12-14T04:12:55.031Z,40.33
2022-12-14T04:15:43.977Z,42.55
2022-12-14T04:18:41.536Z,33.97
2022-12-14T04:21:32.276Z,31.45
2022-12-14T04:24:27.543Z,43.60
2022-12-14T04:27:10.098Z,36.25
2022-12-14T04:29:58.097Z,39.83
2022-12-14T04:32:44.403Z,39.25
2022-12-14T04:35:29.668Z,35.70
2022-12-14T04:38:10.736Z,40.30
2022-12-14T04:40:48.204Z,32.03
2022-12-14T04:43:25.552Z,32.47
2022-12-14T04:46:06.794Z,31.95
2022-12-14T04:49:23.533Z,25.90
2022-12-14T04:52:05.616Z,33.17
2022-12-14T04:55:21.801Z,42.50
2022-12-14T04:58:13.115Z,34.53
2022-12-14T05:01:05.117Z,37.00
2022-12-14T05:03:38.961Z,32.70
2022-12-14T05:06:20.882Z,39.83
2022-12-14T05:08:55.922Z,28.33
2022-12-14T05:11:53.653Z,30.25
2022-12-14T05:14:51.525Z,28.13
2022-12-14T05:17:22.161Z,29.73
2022-12-14T05:19:51.030Z,29.92
2022-12-14T05:22:19.022Z,30.30
2022-12-14T05:24:48.438Z,29.15
2022-12-14T05:27:15.617Z,32.20
2022-12-14T05:29:43.067Z,35.22
2022-12-14T05:32:13.052Z,31.50
2022-12-14T05:34:42.791Z,29.52
2022-12-14T05:37:16.244Z,29.88
2022-12-14T05:39:47.558Z,33.25
2022-12-14T05:42:14.594Z,34.20
2022-12-14T05:44:41.717Z,32.78
2022-12-14T05:47:08.935Z,36.90
2022-12-14T05:49:35.925Z,31.83
2022-12-14T05:52:03.060Z,29.23
2022-12-14T05:54:32.370Z,33.00
2022-12-14T05:56:59.258Z,29.38
2022-12-14T05:59:26.484Z,37.17
2022-12-14T06:01:53.669Z,28.38
2022-12-14T06:04:20.738Z,39.05
2022-12-14T06:06:47.854Z,43.88
2022-12-14T06:09:19.885Z,32.40
2022-12-14T06:11:47.921Z,37.17
2022-12-14T06:14:18.098Z,34.95
2022-12-14T06:16:48.310Z,32.35
2022-12-14T06:19:15.737Z,34.53
2022-12-14T06:21:44.860Z,37.35
2022-12-14T06:24:13.780Z,42.03
2022-12-14T06:26:43.489Z,28.95
2022-12-14T06:29:19.641Z,34.88
2022-12-14T06:31:49.196Z,25.02
2022-12-14T06:34:18.256Z,30.17
2022-12-14T06:36:46.958Z,34.88
2022-12-14T06:39:17.361Z,29.58
2022-12-14T06:41:44.589Z,30.80
2022-12-14T06:44:14.483Z,28.65
2022-12-14T06:46:42.306Z,32.28
2022-12-14T06:49:15.158Z,31.88
2022-12-14T06:51:45.564Z,47.05
2022-12-14T06:54:18.886Z,33.40
2022-12-14T06:56:49.824Z,35.13
2022-12-14T06:59:17.356Z,31.63
2022-12-14T07:01:50.151Z,36.50
2022-12-14T07:04:18.839Z,32.85
2022-12-14T07:06:45.700Z,29.55
2022-12-14T07:09:16.679Z,28.15
2022-12-14T07:11:43.863Z,32.00
2022-12-14T07:14:21.576Z,34.72
2022-12-14T07:16:49.245Z,31.20
2022-12-14T07:19:21.814Z,34.40
2022-12-14T07:21:48.722Z,30.13
2022-12-14T07:24:15.790Z,32.60
2022-12-14T07:26:42.707Z,25.63
2022-12-14T07:29:11.894Z,25.58
2022-12-14T07:31:38.989Z,31.40
2022-12-14T07:34:06.043Z,31.10
2022-12-14T07:36:36.161Z,33.15
2022-12-14T07:39:05.321Z,35.05
2022-12-14T07:41:32.488Z,30.27
2022-12-14T07:44:03.111Z,30.20
2022-12-14T07:46:32.352Z,26.83
2022-12-14T07:49:00.631Z,27.95
2022-12-14T07:51:36.040Z,25.50
2022-12-14T07:54:05.761Z,25.08
2022-12-14T07:56:36.390Z,24.30
2022-12-14T07:59:08.424Z,36.55
2022-12-14T08:01:37.470Z,26.10
2022-12-14T08:04:14.523Z,31.10
2022-12-14T08:06:44.814Z,33.58
2022-12-14T08:09:12.827Z,31.73
2022-12-14T08:11:40.386Z,30.15
2022-12-14T08:14:13.472Z,34.42
2022-12-14T08:16:40.417Z,31.27
2022-12-14T08:19:07.297Z,33.97
2022-12-14T08:21:34.188Z,30.37
2022-12-14T08:24:01.437Z,31.33
2022-12-14T08:26:34.909Z,29.23
2022-12-14T08:29:05.576Z,33.03
2022-12-14T08:31:38.024Z,32.50
2022-12-14T08:34:07.530Z,31.13
2022-12-14T08:36:35.223Z,34.23
2022-12-14T08:39:06.065Z,45.60
2022-12-14T08:41:38.156Z,36.93
2022-12-14T08:44:09.236Z,37.30
2022-12-14T08:46:37.707Z,33.87
2022-12-14T08:49:07.257Z,35.60
2022-12-14T08:51:40.675Z,34.50
2022-12-14T08:54:12.839Z,32.13
2022-12-14T08:56:39.743Z,30.50
2022-12-14T08:59:06.665Z,31.27
2022-12-14T09:01:36.156Z,29.73
2022-12-14T09:04:06.717Z,28.90
2022-12-14T09:06:37.284Z,33.20
2022-12-14T09:09:13.567Z,33.70
2022-12-14T09:11:44.314Z,29.00
2022-12-14T09:14:14.000Z,36.50
2022-12-14T09:16:41.404Z,28.23
2022-12-14T09:19:08.410Z,29.30
2022-12-14T09:21:38.371Z,35.93
2022-12-14T09:24:06.921Z,37.40
2022-12-14T09:26:33.917Z,32.40
2022-12-14T09:29:03.260Z,30.83
2022-12-14T09:31:30.263Z,39.80
2022-12-14T09:33:59.903Z,32.77
2022-12-14T09:36:28.323Z,37.13
2022-12-14T09:38:56.605Z,30.20
2022-12-14T09:41:35.490Z,31.03
2022-12-14T09:44:24.799Z,30.33
2022-12-14T09:47:12.298Z,36.53
2022-12-14T09:49:55.469Z,29.00
2022-12-14T09:52:39.983Z,34.93
2022-12-14T09:55:28.109Z,30.37
2022-12-14T09:58:18.556Z,36.33
2022-12-14T10:01:15.037Z,31.90
2022-12-14T10:04:02.229Z,33.70
2022-12-14T10:06:49.584Z,29.80
2022-12-14T10:10:24.532Z,31.37
2022-12-14T10:13:04.209Z,30.30
2022-12-14T10:15:55.074Z,29.83
2022-12-14T10:19:00.519Z,30.20
2022-12-14T10:22:04.712Z,33.77
2022-12-14T10:24:42.016Z,35.70
2022-12-14T10:27:17.893Z,29.17
2022-12-14T10:30:01.812Z,36.03
2022-12-14T10:32:40.887Z,42.00
2022-12-14T10:35:16.665Z,30.03
2022-12-14T10:38:07.280Z,34.83
2022-12-14T10:40:35.593Z,26.37
2022-12-14T10:43:17.870Z,27.37
2022-12-14T10:46:13.527Z,28.83
2022-12-14T10:49:09.240Z,31.13
2022-12-14T10:52:02.155Z,28.50
2022-12-14T10:54:45.280Z,31.73
2022-12-14T10:57:26.370Z,26.93
2022-12-14T11:00:07.951Z,28.80
2022-12-14T11:02:49.877Z,29.73
2022-12-14T11:05:25.074Z,28.00
2022-12-14T11:07:52.027Z,27.40
2022-12-14T11:10:23.901Z,28.57
2022-12-14T11:12:59.683Z,24.00
2022-12-14T11:15:40.796Z,24.13
2022-12-14T11:18:17.023Z,27.37
2022-12-14T11:21:03.567Z,22.77
2022-12-14T11:23:36.877Z,23.23
2022-12-14T11:26:13.432Z,24.43
2022-12-14T11:28:51.460Z,24.03
2022-12-14T11:31:39.452Z,20.23
2022-12-14T11:34:22.282Z,23.43
2022-12-14T11:36:51.888Z,21.40
2022-12-14T11:39:27.051Z,21.13
2022-12-14T11:42:04.794Z,24.90
2022-12-14T11:44:36.422Z,20.27
2022-12-14T11:47:39.971Z,21.87
2022-12-14T11:50:24.424Z,22.87
2022-12-14T11:52:51.267Z,30.63
2022-12-14T11:55:27.237Z,23.20
2022-12-14T11:57:59.355Z,24.13
2022-12-14T12:00:30.362Z,24.03
2022-12-14T12:03:12.715Z,27.13
2022-12-14T12:05:44.670Z,18.97
2022-12-14T12:08:28.154Z,17.17
2022-12-14T12:11:05.836Z,22.83
2022-12-14T12:13:39.767Z,24.43
2022-12-14T12:16:22.000Z,24.80
2022-12-14T12:19:12.248Z,23.07
2022-12-14T12:21:48.625Z,26.23
2022-12-14T12:24:34.431Z,21.40
2022-12-14T12:27:12.920Z,20.20
2022-12-14T12:29:50.877Z,22.80
2022-12-14T12:32:20.212Z,19.00
2022-12-14T12:35:29.654Z,19.63
2022-12-14T12:38:00.578Z,18.50
2022-12-14T12:40:46.778Z,18.20
2022-12-14T12:43:30.190Z,23.33
2022-12-14T12:46:02.388Z,20.17
2022-12-14T12:48:41.618Z,19.43
2022-12-14T12:51:17.238Z,18.40
2022-12-14T12:53:56.823Z,16.70
2022-12-14T12:56:50.162Z,20.27
2022-12-14T12:59:52.000Z,20.17
2022-12-14T13:02:34.718Z,20.80
2022-12-14T13:05:37.248Z,17.57
2022-12-14T13:08:11.793Z,17.57
2022-12-14T13:11:09.093Z,17.23
2022-12-14T13:13:35.390Z,20.97
2022-12-14T13:16:44.120Z,16.57
2022-12-14T13:19:51.677Z,18.03
2022-12-14T13:22:35.659Z,19.80
2022-12-14T13:25:20.858Z,21.03
2022-12-14T13:28:07.025Z,17.57
2022-12-14T13:31:20.463Z,24.53
2022-12-14T13:34:11.362Z,19.73
2022-12-14T13:37:26.467Z,18.83
2022-12-14T13:40:33.928Z,17.80
2022-12-14T13:43:30.987Z,25.33
2022-12-14T13:46:22.606Z,22.80
2022-12-14T13:48:54.131Z,21.57
2022-12-14T13:51:32.575Z,20.60
2022-12-14T13:54:06.559Z,21.57
2022-12-14T13:56:39.614Z,24.33
2022-12-14T13:59:34.166Z,22.00
2022-12-14T14:02:05.730Z,19.27
2022-12-14T14:04:36.637Z,19.30
2022-12-14T14:07:27.632Z,22.60
2022-12-14T14:10:06.612Z,24.30
2022-12-14T14:12:39.872Z,17.10
2022-12-14T14:15:34.769Z,16.17
2022-12-14T14:18:17.289Z,24.80
2022-12-14T14:20:57.139Z,20.20
2022-12-14T14:23:31.735Z,17.67
2022-12-14T14:26:21.004Z,23.17
2022-12-14T14:29:05.968Z,20.80
2022-12-14T14:31:55.840Z,20.67
2022-12-14T14:34:54.357Z,18.73
2022-12-14T14:37:21.940Z,19.20
2022-12-14T14:40:10.288Z,21.67
2022-12-14T14:43:17.451Z,21.47
2022-12-14T14:46:00.172Z,21.57
2022-12-14T14:48:34.880Z,17.90
2022-12-14T14:51:17.950Z,21.53
2022-12-14T14:53:50.316Z,19.17
2022-12-14T14:56:30.196Z,20.60
2022-12-14T14:59:19.055Z,20.90
2022-12-14T15:02:00.558Z,24.47
2022-12-14T15:04:57.047Z,24.30
2022-12-14T15:07:29.721Z,24.30
2022-12-14T15:10:33.580Z,22.63
2022-12-14T15:13:08.620Z,22.90
2022-12-14T15:15:44.775Z,18.60
2022-12-14T15:18:32.025Z,31.10
2022-12-14T15:21:13.562Z,24.23
2022-12-14T15:23:45.395Z,23.63
2022-12-14T15:26:30.083Z,24.20
2022-12-14T15:29:02.092Z,24.20
2022-12-14T15:31:35.758Z,30.93
2022-12-14T15:34:03.252Z,28.50
2022-12-14T15:36:37.439Z,27.83
2022-12-14T15:39:08.021Z,24.57
2022-12-14T15:41:37.409Z,30.33
2022-12-14T15:44:20.916Z,31.10
2022-12-14T15:46:55.241Z,30.47
2022-12-14T15:49:23.249Z,30.90
2022-12-14T15:51:53.489Z,23.40
2022-12-14T15:54:27.153Z,29.63
2022-12-14T15:57:00.768Z,27.90
2022-12-14T15:59:35.639Z,27.20
2022-12-14T16:02:32.956Z,46.80
2022-12-14T16:05:03.641Z,35.47
2022-12-14T16:07:38.498Z,31.57
2022-12-14T16:10:25.161Z,28.30
2022-12-14T16:13:06.422Z,30.87
2022-12-14T16:15:37.615Z,37.77
2022-12-14T16:18:05.095Z,33.00
2022-12-14T16:20:40.078Z,37.67
2022-12-14T16:23:19.648Z,32.27
2022-12-14T16:26:01.161Z,31.40
2022-12-14T16:28:40.116Z,35.37
2022-12-14T16:31:19.785Z,35.77
2022-12-14T16:34:02.861Z,35.60
2022-12-14T16:36:35.379Z,31.00
2022-12-14T16:39:22.299Z,38.53
2022-12-14T16:42:00.559Z,30.53
2022-12-14T16:44:30.723Z,32.60
2022-12-14T16:47:17.653Z,33.07
2022-12-14T16:49:56.676Z,37.03
2022-12-14T16:52:31.092Z,54.07
2022-12-14T16:55:17.069Z,29.70
2022-12-14T16:57:59.371Z,33.60
2022-12-14T17:00:40.337Z,33.53
2022-12-14T17:03:26.341Z,33.27
2022-12-14T17:06:05.201Z,33.17
2022-12-14T17:08:33.904Z,31.93
2022-12-14T17:11:02.141Z,41.33
2022-12-14T17:13:31.577Z,31.02
2022-12-14T17:16:03.914Z,35.00
2022-12-14T17:18:37.919Z,31.97
2022-12-14T17:21:09.781Z,33.93
2022-12-14T17:23:40.166Z,38.33
2022-12-14T17:26:09.228Z,35.35
2022-12-14T17:28:39.146Z,42.78
2022-12-14T17:31:06.074Z,38.85
2022-12-14T17:33:33.347Z,34.15
2022-12-14T17:36:00.506Z,36.97
2022-12-14T17:38:27.429Z,31.65
2022-12-14T17:40:56.933Z,36.80
2022-12-14T17:43:27.972Z,29.10
2022-12-14T17:45:55.749Z,30.73
2022-12-14T17:48:22.623Z,29.35
2022-12-14T17:50:52.190Z,31.27
2022-12-14T17:53:29.448Z,29.35
2022-12-14T17:55:59.960Z,31.38
2022-12-14T17:58:29.299Z,30.40
2022-12-14T18:01:03.779Z,32.63
2022-12-14T18:03:36.961Z,35.88
2022-12-14T18:06:07.550Z,37.05
2022-12-14T18:08:36.618Z,44.58
2022-12-14T18:11:13.436Z,51.30
2022-12-14T18:13:42.519Z,42.13
2022-12-14T18:16:20.073Z,41.05
2022-12-14T18:18:48.323Z,34.67
2022-12-14T18:21:23.624Z,38.40
2022-12-14T18:23:53.723Z,40.30
2022-12-14T18:26:24.440Z,43.45
2022-12-14T18:28:55.357Z,37.72
2022-12-14T18:31:38.372Z,43.03
2022-12-14T18:34:06.051Z,39.70
2022-12-14T18:36:34.313Z,39.10
2022-12-14T18:39:03.536Z,41.08
2022-12-14T18:41:33.658Z,43.63
2022-12-14T18:44:01.234Z,42.95
2022-12-14T18:46:30.856Z,43.75
2022-12-14T18:48:58.393Z,42.92
2022-12-14T18:51:28.898Z,38.95
2022-12-14T18:53:59.127Z,41.25
2022-12-14T18:56:30.396Z,40.13
2022-12-14T18:59:00.620Z,41.83
2022-12-14T19:01:27.601Z,44.13
2022-12-14T19:03:57.202Z,43.30
2022-12-14T19:06:43.971Z,37.22
2022-12-14T19:09:15.956Z,43.42
2022-12-14T19:11:43.877Z,41.63
2022-12-14T19:14:13.545Z,41.17
2022-12-14T19:16:40.565Z,44.47
2022-12-14T19:19:07.481Z,42.88
2022-12-14T19:21:35.005Z,42.10
2022-12-14T19:24:02.678Z,44.75
2022-12-14T19:26:32.463Z,45.30
2022-12-14T19:28:59.423Z,44.08
2022-12-14T19:31:26.589Z,38.53
2022-12-14T19:33:55.818Z,45.85
2022-12-14T19:36:23.046Z,37.20
2022-12-14T19:38:51.068Z,41.53
2022-12-14T19:41:21.503Z,46.05
2022-12-14T19:43:48.578Z,41.22
2022-12-14T19:46:16.297Z,42.17
2022-12-14T19:48:44.033Z,50.25
2022-12-14T19:51:13.470Z,44.75
2022-12-14T19:53:42.852Z,46.90
2022-12-14T19:56:15.209Z,51.13
2022-12-14T19:58:42.150Z,46.17
2022-12-14T20:01:11.523Z,46.25
2022-12-14T20:03:41.688Z,41.95
2022-12-14T20:06:09.188Z,43.55
2022-12-14T20:08:39.232Z,40.97
2022-12-14T20:11:11.648Z,39.70
2022-12-14T20:13:38.638Z,41.47
2022-12-14T20:16:15.698Z,41.78
2022-12-14T20:18:42.997Z,42.88
2022-12-14T20:21:21.464Z,52.70
2022-12-14T20:23:51.469Z,46.38
2022-12-14T20:26:21.263Z,41.90
2022-12-14T20:28:55.011Z,43.35
2022-12-14T20:31:26.052Z,48.83
2022-12-14T20:33:57.524Z,49.05
2022-12-14T20:36:27.466Z,54.10
2022-12-14T20:39:01.296Z,53.70
2022-12-14T20:41:29.355Z,49.30
2022-12-14T20:43:56.331Z,42.60
2022-12-14T20:46:33.842Z,40.90
2022-12-14T20:49:11.398Z,38.78
2022-12-14T20:51:41.586Z,43.88
2022-12-14T20:54:17.469Z,48.05
2022-12-14T20:56:50.500Z,52.28
2022-12-14T20:59:17.757Z,39.97
2022-12-14T21:01:50.063Z,40.55
2022-12-14T21:04:20.670Z,44.35
2022-12-14T21:06:47.639Z,46.95
2022-12-14T21:09:15.096Z,46.30
2022-12-14T21:12:07.372Z,50.92
2022-12-14T21:14:42.395Z,37.05
2022-12-14T21:17:11.867Z,45.50
2022-12-14T21:19:38.858Z,42.95
2022-12-14T21:22:08.580Z,48.75
2022-12-14T21:27:26.632Z,38.53
2022-12-14T21:29:54.201Z,43.05
2022-12-14T21:32:22.776Z,40.42
2022-12-14T21:34:50.230Z,40.40
2022-12-14T21:37:20.442Z,49.13
2022-12-14T21:39:54.795Z,43.30
2022-12-14T21:42:26.581Z,45.47
2022-12-14T21:44:55.169Z,39.00
2022-12-14T21:47:26.877Z,49.05
2022-12-14T21:49:56.961Z,39.45
2022-12-14T21:52:26.782Z,49.38
2022-12-14T21:54:53.885Z,40.60
2022-12-14T21:57:42.744Z,43.38
2022-12-14T22:00:11.703Z,39.40
2022-12-14T22:02:42.515Z,43.33
2022-12-14T22:05:13.307Z,45.53
2022-12-14T22:07:42.834Z,46.08
2022-12-14T22:10:12.220Z,40.03
2022-12-14T22:12:41.669Z,37.67
2022-12-14T22:15:11.619Z,33.35
2022-12-14T22:17:38.575Z,40.25
2022-12-14T22:20:06.342Z,41.15
2022-12-14T22:22:38.302Z,40.03
2022-12-14T22:25:05.960Z,36.53
2022-12-14T22:27:35.258Z,46.67
2022-12-14T22:30:05.229Z,40.15
2022-12-14T22:32:33.857Z,37.30
2022-12-14T22:35:03.417Z,37.83
2022-12-14T22:37:31.031Z,42.17
2022-12-14T22:40:01.119Z,47.13
2022-12-14T22:42:31.143Z,41.63
2022-12-14T22:44:58.397Z,40.05
2022-12-14T22:47:25.699Z,38.08
2022-12-14T22:49:54.766Z,43.90
2022-12-14T22:52:25.000Z,38.83
2022-12-14T22:54:54.958Z,37.90
2022-12-14T22:57:23.079Z,45.55
2022-12-14T23:00:03.106Z,38.47
2022-12-14T23:02:31.398Z,43.67
2022-12-14T23:05:00.863Z,38.03
2022-12-14T23:07:30.303Z,41.15
2022-12-14T23:10:15.993Z,44.75
2022-12-14T23:13:01.927Z,37.67
2022-12-14T23:15:50.146Z,38.60
2022-12-14T23:18:38.015Z,41.97
2022-12-14T23:21:28.649Z,37.65
2022-12-14T23:24:14.561Z,46.75
2022-12-14T23:27:08.801Z,39.65
2022-12-14T23:29:55.447Z,31.58
2022-12-14T23:32:43.242Z,36.33
2022-12-14T23:35:28.772Z,38.13
2022-12-14T23:38:14.683Z,41.55
2022-12-14T23:41:00.437Z,37.72
2022-12-14T23:43:45.734Z,38.10
2022-12-14T23:46:32.110Z,41.50
2022-12-14T23:49:18.520Z,41.83
2022-12-14T23:52:06.523Z,36.53
2022-12-14T23:54:54.901Z,39.58
2022-12-14T23:57:40.725Z,36.25
